Time;durP1;ratioP1;P1;durP2;ratioP2;P2;SDS_P1;SDS_P2;PMS_P1;PMS_P2;Temp;Humidity;BMP_temperature;BMP_pressure;BME280_temperature;BME280_humidity;BME280_pressure;Samples;Min_cycle;Max_cycle;Signal;HPM_P1;HPM_P2
2022/04/06 00:02:16;;;;;;;21.40;7.32;;;8.10;99.90;;;;;;5095919;28;20451;-76
2022/04/06 00:04:43;;;;;;;14.00;6.53;;;8.10;99.90;;;;;;5095811;28;20103;-76
2022/04/06 00:07:09;;;;;;;19.45;6.55;;;8.20;99.90;;;;;;5078307;28;20091;-75
2022/04/06 00:09:39;;;;;;;14.75;7.25;;;8.20;99.90;;;;;;5077151;28;20048;-75
2022/04/06 00:12:07;;;;;;;15.45;7.47;;;8.20;99.90;;;;;;5094798;28;20491;-75
2022/04/06 00:14:34;;;;;;;15.07;6.65;;;8.20;99.90;;;;;;5095136;28;20115;-75
2022/04/06 00:17:05;;;;;;;17.90;7.20;;;8.10;99.90;;;;;;5077547;28;20076;-75
2022/04/06 00:19:32;;;;;;;18.15;7.80;;;8.20;99.90;;;;;;5095356;28;20460;-75
2022/04/06 00:21:59;;;;;;;15.23;8.55;;;8.20;99.90;;;;;;5096055;28;20454;-74
2022/04/06 00:24:26;;;;;;;18.67;7.85;;;8.20;99.90;;;;;;5095703;28;20116;-75
2022/04/06 00:26:54;;;;;;;20.05;8.40;;;8.20;99.90;;;;;;5094627;28;20048;-75
2022/04/06 00:29:21;;;;;;;21.10;9.10;;;8.20;99.90;;;;;;5095059;28;20128;-75
2022/04/06 00:31:48;;;;;;;16.38;8.25;;;8.20;99.90;;;;;;5077086;28;20101;-75
2022/04/06 00:34:15;;;;;;;19.85;9.38;;;8.20;99.90;;;;;;5076343;28;20128;-75
2022/04/06 00:36:41;;;;;;;26.42;9.55;;;8.20;99.90;;;;;;5076305;28;20044;-74
2022/04/06 00:39:08;;;;;;;23.98;10.38;;;8.20;99.90;;;;;;5094850;28;20089;-74
2022/04/06 00:41:35;;;;;;;23.02;9.98;;;8.20;99.90;;;;;;5075789;28;20083;-74
2022/04/06 00:44:19;;;;;;;29.23;11.05;;;8.20;99.90;;;;;;5094560;28;20048;-74
2022/04/06 00:46:47;;;;;;;22.67;9.68;;;8.20;99.90;;;;;;5093909;28;20357;-75
2022/04/06 00:49:15;;;;;;;21.83;11.18;;;8.20;99.90;;;;;;5076688;28;20087;-74
2022/04/06 00:51:44;;;;;;;20.13;10.15;;;8.20;99.90;;;;;;5094198;28;20087;-75
2022/04/06 00:54:14;;;;;;;25.38;12.38;;;8.20;99.90;;;;;;5075825;28;20131;-74
2022/04/06 00:56:41;;;;;;;26.60;10.52;;;8.20;99.90;;;;;;5076852;28;20458;-75
2022/04/06 00:59:09;;;;;;;24.02;11.43;;;8.20;99.90;;;;;;5076519;28;20052;-75
2022/04/06 01:01:38;;;;;;;21.63;11.02;;;8.30;99.90;;;;;;5075772;28;20088;-75
2022/04/06 01:04:06;;;;;;;25.42;10.05;;;8.30;99.90;;;;;;5094524;28;20052;-75
2022/04/06 01:06:33;;;;;;;23.02;10.82;;;8.30;99.90;;;;;;5072795;28;20048;-75
2022/04/06 01:09:00;;;;;;;26.17;10.77;;;8.30;99.90;;;;;;5056269;28;20404;-75
2022/04/06 01:11:26;;;;;;;26.30;11.07;;;8.30;99.90;;;;;;5056050;28;20098;-74
2022/04/06 01:13:55;;;;;;;29.48;11.27;;;8.30;99.90;;;;;;5073032;28;20544;-75
2022/04/06 01:16:22;;;;;;;22.00;10.07;;;8.30;99.90;;;;;;5055695;28;20405;-74
2022/04/06 01:18:50;;;;;;;24.02;10.30;;;8.30;99.90;;;;;;5055941;28;20090;-74
2022/04/06 01:21:17;;;;;;;23.88;10.02;;;8.30;99.90;;;;;;5062238;28;20044;-74
2022/04/06 01:23:46;;;;;;;18.88;9.68;;;8.30;99.90;;;;;;5074992;28;20094;-74
2022/04/06 01:26:13;;;;;;;24.60;10.00;;;8.30;99.90;;;;;;5075869;28;20071;-76
2022/04/06 01:28:41;;;;;;;19.33;9.85;;;8.30;99.90;;;;;;5075683;28;20060;-75
2022/04/06 01:31:09;;;;;;;18.17;9.15;;;8.30;99.90;;;;;;5075340;28;20055;-76
2022/04/06 01:33:35;;;;;;;21.42;9.82;;;8.30;99.90;;;;;;5072237;28;20036;-76
2022/04/06 01:36:03;;;;;;;17.45;10.18;;;8.30;99.90;;;;;;5055427;28;20044;-76
2022/04/06 01:38:30;;;;;;;21.70;9.05;;;8.40;99.90;;;;;;5055995;28;20171;-76
2022/04/06 01:40:58;;;;;;;20.33;8.38;;;8.30;99.90;;;;;;5055492;28;20052;-76
2022/04/06 01:43:25;;;;;;;21.33;8.55;;;8.40;99.90;;;;;;5055231;28;20401;-76
2022/04/06 01:45:52;;;;;;;22.33;8.52;;;8.40;99.90;;;;;;5057471;28;20086;-74
2022/04/06 01:48:19;;;;;;;21.65;7.85;;;8.40;99.90;;;;;;5065590;28;20443;-75
2022/04/06 01:53:31;;;;;;;21.65;7.53;;;8.40;99.90;;;;;;5057284;28;20143;-76
2022/04/06 01:56:00;;;;;;;18.33;8.65;;;8.40;99.90;;;;;;5055583;28;20479;-76
2022/04/06 01:58:27;;;;;;;20.02;8.00;;;8.40;99.90;;;;;;5055763;28;20098;-75
2022/04/06 02:00:54;;;;;;;16.33;8.35;;;8.40;99.90;;;;;;5061724;28;20476;-75
2022/04/06 02:03:21;;;;;;;19.77;7.53;;;8.30;99.90;;;;;;5075982;28;20055;-76
2022/04/06 02:05:47;;;;;;;21.40;7.85;;;8.40;99.90;;;;;;5093476;28;20048;-75
2022/04/06 02:08:15;;;;;;;16.33;6.80;;;8.40;99.90;;;;;;5075394;28;20079;-75
2022/04/06 02:10:42;;;;;;;16.83;7.00;;;8.30;99.90;;;;;;5075158;28;20056;-75
2022/04/06 02:13:11;;;;;;;17.55;6.70;;;8.40;99.90;;;;;;5092423;28;20044;-75
2022/04/06 02:15:39;;;;;;;14.73;6.57;;;8.40;99.90;;;;;;5092797;28;20051;-75
2022/04/06 02:18:08;;;;;;;19.33;5.85;;;8.40;99.90;;;;;;5092524;28;20317;-74
2022/04/06 02:20:35;;;;;;;20.20;6.28;;;8.40;99.90;;;;;;5075326;28;20079;-75
2022/04/06 02:23:02;;;;;;;16.38;6.78;;;8.40;99.90;;;;;;5075088;28;20090;-75
2022/04/06 02:25:29;;;;;;;16.30;5.80;;;8.40;99.90;;;;;;5092287;28;20044;-74
2022/04/06 02:27:56;;;;;;;12.57;6.20;;;8.40;99.90;;;;;;5092674;28;20092;-74
2022/04/06 02:30:24;;;;;;;13.02;5.40;;;8.40;99.90;;;;;;5071216;28;20049;-75
2022/04/06 02:32:51;;;;;;;12.35;5.28;;;8.50;99.90;;;;;;5072202;28;20132;-75
2022/04/06 02:35:18;;;;;;;16.38;6.35;;;8.40;99.90;;;;;;5054779;28;20056;-75
2022/04/06 02:37:46;;;;;;;14.52;5.78;;;8.40;99.90;;;;;;5072467;28;20052;-75
2022/04/06 02:40:15;;;;;;;20.65;6.05;;;8.40;99.90;;;;;;5071995;28;20181;-75
2022/04/06 02:42:42;;;;;;;14.55;6.10;;;8.40;99.90;;;;;;5054442;28;20098;-75
2022/04/06 02:45:09;;;;;;;11.57;6.03;;;8.40;99.90;;;;;;5057209;28;20123;-75
2022/04/06 02:47:38;;;;;;;14.82;6.70;;;8.40;99.90;;;;;;5054452;28;20426;-74
2022/04/06 02:50:06;;;;;;;13.25;5.35;;;8.40;99.90;;;;;;5072669;28;20088;-75
2022/04/06 02:52:33;;;;;;;13.80;4.93;;;8.40;99.90;;;;;;5055453;28;20090;-75
2022/04/06 02:54:59;;;;;;;14.40;4.28;;;8.40;99.90;;;;;;5054472;28;20496;-75
2022/04/06 02:57:26;;;;;;;11.27;4.47;;;8.40;99.90;;;;;;5056644;28;20056;-76
2022/04/06 02:59:53;;;;;;;8.63;4.53;;;8.40;99.90;;;;;;5081420;28;20051;-75
2022/04/06 03:02:20;;;;;;;9.68;3.80;;;8.40;99.90;;;;;;5097943;28;20055;-76
2022/04/06 03:04:48;;;;;;;14.90;3.80;;;8.40;99.90;;;;;;5097882;28;20063;-75
2022/04/06 03:07:19;;;;;;;10.30;4.75;;;8.40;99.90;;;;;;5094290;28;20086;-77
2022/04/06 03:09:46;;;;;;;7.28;3.13;;;8.40;99.90;;;;;;5075887;28;20048;-76
2022/04/06 03:12:13;;;;;;;14.07;4.07;;;8.40;99.90;;;;;;5074425;28;20087;-75
2022/04/06 03:14:40;;;;;;;9.88;3.58;;;8.40;99.90;;;;;;5073744;28;20158;-75
2022/04/06 03:17:07;;;;;;;10.52;3.72;;;8.40;99.90;;;;;;5092577;28;20388;-75
2022/04/06 03:19:34;;;;;;;4.80;2.72;;;8.40;99.90;;;;;;5071266;28;20130;-75
2022/04/06 03:22:02;;;;;;;7.18;3.25;;;8.40;99.90;;;;;;5054043;28;20139;-75
2022/04/06 03:24:29;;;;;;;9.07;2.75;;;8.40;99.90;;;;;;5054485;28;20094;-75
2022/04/06 03:26:56;;;;;;;8.95;3.28;;;8.40;99.90;;;;;;5054260;28;20052;-75
2022/04/06 03:29:23;;;;;;;8.80;3.08;;;8.30;99.90;;;;;;5071405;28;20060;-74
2022/04/06 03:31:50;;;;;;;13.07;3.22;;;8.40;99.90;;;;;;5072234;28;20083;-75
2022/04/06 03:34:16;;;;;;;11.30;3.25;;;8.40;99.90;;;;;;5067800;28;20105;-74
2022/04/06 03:36:43;;;;;;;8.68;2.95;;;8.40;99.90;;;;;;5074777;28;20432;-74
2022/04/06 03:39:11;;;;;;;8.57;3.15;;;8.40;99.90;;;;;;5077935;28;20173;-74
2022/04/06 03:41:38;;;;;;;9.35;2.70;;;8.40;99.90;;;;;;5077895;28;20083;-75
2022/04/06 03:44:05;;;;;;;8.15;3.03;;;8.40;99.90;;;;;;5076610;28;20083;-75
2022/04/06 03:46:32;;;;;;;5.32;2.45;;;8.40;99.90;;;;;;5095791;28;20094;-76
2022/04/06 03:48:59;;;;;;;8.68;3.05;;;8.40;99.90;;;;;;5082808;28;20084;-75
2022/04/06 03:51:26;;;;;;;6.28;3.05;;;8.40;99.90;;;;;;5063294;28;20102;-75
2022/04/06 03:53:53;;;;;;;7.05;3.13;;;8.40;99.90;;;;;;5088774;28;20075;-75
2022/04/06 03:56:21;;;;;;;9.25;3.42;;;8.40;99.90;;;;;;5070742;28;20400;-77
2022/04/06 03:58:49;;;;;;;11.45;3.42;;;8.40;99.90;;;;;;5070965;28;20483;-76
2022/04/06 04:01:16;;;;;;;8.85;3.75;;;8.40;99.90;;;;;;5089653;28;20508;-75
2022/04/06 04:03:43;;;;;;;12.15;4.35;;;8.30;99.90;;;;;;5066215;28;20068;-74
2022/04/06 04:06:09;;;;;;;8.80;3.75;;;8.30;99.90;;;;;;5092602;28;20078;-75
2022/04/06 04:08:37;;;;;;;14.00;4.43;;;8.30;99.90;;;;;;5088389;28;20076;-75
2022/04/06 04:11:03;;;;;;;11.43;4.43;;;8.20;99.90;;;;;;5085435;28;20488;-75
2022/04/06 04:13:32;;;;;;;22.50;4.78;;;8.20;99.90;;;;;;5086630;28;20457;-75
2022/04/06 04:15:59;;;;;;;15.43;4.70;;;8.20;99.90;;;;;;5071722;28;20131;-75
2022/04/06 04:18:26;;;;;;;18.10;5.20;;;8.20;99.90;;;;;;5086384;28;20086;-78
2022/04/06 04:21:31;;;;;;;13.85;5.95;;;8.20;99.90;;;;;;5087210;28;20461;-75
2022/04/06 04:23:39;;;;;;;16.23;6.28;;;8.10;99.90;;;;;;5071675;28;20139;-76
2022/04/06 04:26:06;;;;;;;16.13;5.88;;;8.10;99.90;;;;;;5071731;28;20064;-76
2022/04/06 04:28:34;;;;;;;14.60;6.35;;;8.10;99.90;;;;;;5067720;28;20118;-75
2022/04/06 04:31:02;;;;;;;17.85;6.55;;;8.10;99.90;;;;;;5088975;28;20564;-75
2022/04/06 04:33:29;;;;;;;19.30;7.18;;;8.10;99.90;;;;;;5069094;28;20048;-74
2022/04/06 04:35:56;;;;;;;19.10;6.53;;;8.00;99.90;;;;;;5086713;28;20048;-74
2022/04/06 04:38:23;;;;;;;21.00;6.57;;;8.00;99.90;;;;;;5069921;28;20439;-74
2022/04/06 04:40:50;;;;;;;16.35;6.43;;;8.00;99.90;;;;;;5063597;28;20087;-74
2022/04/06 04:43:17;;;;;;;19.95;6.60;;;8.10;99.90;;;;;;5073214;28;20049;-73
2022/04/06 04:45:45;;;;;;;21.33;7.03;;;8.10;99.90;;;;;;5060079;28;20144;-74
2022/04/06 04:48:12;;;;;;;19.95;7.68;;;8.00;99.90;;;;;;5056250;28;20110;-74
2022/04/06 04:50:39;;;;;;;16.98;6.60;;;8.20;99.90;;;;;;5071333;28;20135;-74
2022/04/06 04:53:06;;;;;;;15.07;6.97;;;8.10;99.90;;;;;;5072322;28;20098;-75
2022/04/06 04:55:33;;;;;;;15.23;7.15;;;8.10;99.90;;;;;;5054950;28;20445;-73
2022/04/06 04:58:00;;;;;;;19.80;7.47;;;8.10;99.90;;;;;;5070356;28;20152;-72
2022/04/06 05:00:27;;;;;;;16.13;6.35;;;8.10;99.90;;;;;;5055243;28;20150;-74
2022/04/06 05:02:55;;;;;;;16.65;6.78;;;8.10;99.90;;;;;;5072502;28;20093;-74
2022/04/06 05:05:22;;;;;;;28.13;8.63;;;8.10;99.90;;;;;;5060319;28;20083;-76
2022/04/06 05:07:49;;;;;;;16.65;7.75;;;8.10;99.90;;;;;;5081217;28;20097;-75
2022/04/06 05:10:16;;;;;;;17.50;7.38;;;8.20;99.90;;;;;;5068700;28;20080;-74
2022/04/06 05:12:43;;;;;;;14.77;6.32;;;8.20;99.90;;;;;;5069690;28;20052;-73
2022/04/06 05:15:11;;;;;;;20.05;7.00;;;8.30;99.90;;;;;;5071038;28;20047;-71
2022/04/06 05:17:38;;;;;;;17.25;6.50;;;8.30;99.90;;;;;;5070849;28;20155;-73
2022/04/06 05:20:09;;;;;;;14.15;5.90;;;8.20;99.90;;;;;;5066761;28;20091;-74
2022/04/06 05:22:36;;;;;;;15.88;6.50;;;8.20;99.90;;;;;;5067941;28;20080;-72
2022/04/06 05:25:07;;;;;;;12.55;6.70;;;8.10;99.90;;;;;;5065369;28;20079;-72
2022/04/06 05:27:34;;;;;;;16.83;6.70;;;8.10;99.90;;;;;;5065036;28;20048;-73
2022/04/06 05:30:01;;;;;;;14.65;6.20;;;8.10;99.90;;;;;;5089886;28;20048;-73
2022/04/06 05:32:28;;;;;;;15.38;5.55;;;8.00;99.90;;;;;;5065557;28;20110;-73
2022/04/06 05:34:55;;;;;;;15.13;5.68;;;8.00;99.90;;;;;;5087293;28;20048;-74
2022/04/06 05:37:24;;;;;;;18.48;6.28;;;8.00;99.90;;;;;;5064519;28;20480;-73
2022/04/06 05:39:51;;;;;;;11.82;5.93;;;8.00;99.90;;;;;;5081517;28;20059;-72
2022/04/06 05:42:18;;;;;;;23.30;6.35;;;8.00;99.90;;;;;;5064084;28;20059;-73
2022/04/06 05:44:44;;;;;;;15.15;6.03;;;7.90;99.90;;;;;;5084515;28;20167;-73
2022/04/06 05:47:12;;;;;;;15.63;6.47;;;7.90;99.90;;;;;;5085932;28;20094;-72
2022/04/06 05:49:39;;;;;;;18.05;6.00;;;7.90;99.90;;;;;;5084720;28;21394;-72
2022/04/06 05:52:08;;;;;;;14.93;6.50;;;7.90;99.90;;;;;;5067531;28;20076;-71
2022/04/06 05:54:36;;;;;;;21.83;6.80;;;7.90;99.90;;;;;;5085606;28;20658;-72
2022/04/06 05:57:04;;;;;;;17.25;6.60;;;8.00;99.90;;;;;;5084986;28;20114;-73
2022/04/06 05:59:30;;;;;;;15.30;5.45;;;7.90;99.90;;;;;;5088467;28;20090;-73
2022/04/06 06:01:57;;;;;;;14.02;6.20;;;7.90;99.90;;;;;;5087507;28;20048;-73
2022/04/06 06:04:24;;;;;;;14.32;6.90;;;7.90;99.90;;;;;;5065812;28;20072;-74
2022/04/06 06:06:51;;;;;;;16.95;7.72;;;7.90;99.90;;;;;;5065704;28;20091;-75
2022/04/06 06:09:18;;;;;;;20.83;7.35;;;7.90;99.90;;;;;;5090831;28;20119;-74
2022/04/06 06:11:46;;;;;;;14.98;7.55;;;7.90;99.90;;;;;;5065097;28;20094;-74
2022/04/06 06:14:13;;;;;;;15.88;6.88;;;7.90;99.90;;;;;;5063316;28;20141;-72
2022/04/06 06:16:40;;;;;;;17.50;8.48;;;7.90;99.90;;;;;;5071602;28;20496;-75
2022/04/06 06:19:07;;;;;;;18.48;7.00;;;7.80;99.90;;;;;;5073134;28;20109;-75
2022/04/06 06:21:34;;;;;;;15.18;6.63;;;7.80;99.90;;;;;;5077978;28;20092;-76
2022/04/06 06:24:05;;;;;;;16.10;6.63;;;7.80;99.90;;;;;;5096844;28;20051;-75
2022/04/06 06:26:32;;;;;;;15.32;6.88;;;7.80;99.90;;;;;;5095064;28;20097;-75
2022/04/06 06:29:00;;;;;;;14.02;5.82;;;7.80;99.90;;;;;;5078777;28;20185;-76
2022/04/06 06:31:28;;;;;;;13.88;6.15;;;7.80;99.90;;;;;;5113018;28;20084;-75
2022/04/06 06:33:55;;;;;;;13.90;6.38;;;7.80;99.90;;;;;;5095669;28;20052;-76
2022/04/06 06:36:23;;;;;;;15.93;6.35;;;7.80;99.90;;;;;;5113691;28;20043;-76
2022/04/06 06:38:50;;;;;;;14.60;6.00;;;7.80;99.90;;;;;;5079550;28;20052;-75
2022/04/06 06:41:17;;;;;;;13.95;5.20;;;7.80;99.90;;;;;;5093342;28;20084;-75
2022/04/06 06:43:44;;;;;;;14.45;5.10;;;7.80;99.90;;;;;;5093273;28;20060;-75
2022/04/06 06:46:12;;;;;;;10.52;5.80;;;7.80;99.90;;;;;;5074732;28;20403;-75
2022/04/06 06:48:39;;;;;;;12.48;5.03;;;7.80;99.90;;;;;;5074562;28;20056;-76
2022/04/06 06:51:06;;;;;;;11.93;5.15;;;7.80;99.90;;;;;;5074745;28;20083;-75
2022/04/06 06:53:33;;;;;;;13.95;6.55;;;7.80;99.90;;;;;;5074511;28;20135;-75
2022/04/06 06:56:00;;;;;;;13.23;6.68;;;7.80;99.90;;;;;;5086347;28;20040;-75
2022/04/06 06:58:27;;;;;;;10.45;5.25;;;7.80;99.90;;;;;;5092881;28;20506;-75
2022/04/06 07:00:54;;;;;;;12.35;5.32;;;7.80;99.90;;;;;;5074841;28;20048;-75
2022/04/06 07:03:22;;;;;;;13.27;5.35;;;7.80;99.90;;;;;;5075278;28;20109;-75
2022/04/06 07:05:49;;;;;;;14.20;4.60;;;7.80;99.90;;;;;;5092867;28;20137;-75
2022/04/06 07:08:16;;;;;;;13.95;4.28;;;7.80;99.90;;;;;;5074708;28;20097;-75
2022/04/06 07:10:45;;;;;;;11.32;3.92;;;7.80;99.90;;;;;;5092845;28;20456;-75
2022/04/06 07:13:15;;;;;;;9.90;4.18;;;7.80;99.90;;;;;;5078244;28;20060;-76
2022/04/06 07:15:42;;;;;;;12.18;3.80;;;7.80;99.90;;;;;;5078439;28;20130;-75
2022/04/06 07:18:09;;;;;;;10.80;3.30;;;7.80;99.90;;;;;;5081997;28;20045;-75
2022/04/06 07:20:37;;;;;;;10.65;3.70;;;7.80;99.90;;;;;;5067199;28;20057;-75
2022/04/06 07:23:05;;;;;;;11.20;4.18;;;7.80;99.90;;;;;;5092505;28;20048;-76
2022/04/06 07:25:32;;;;;;;8.68;3.72;;;7.80;99.90;;;;;;5079746;28;20133;-76
2022/04/06 07:27:59;;;;;;;14.07;4.18;;;7.80;99.90;;;;;;5079395;28;20097;-76
2022/04/06 07:30:26;;;;;;;10.82;3.38;;;7.90;99.90;;;;;;5096912;28;20471;-76
2022/04/06 07:32:53;;;;;;;8.50;3.33;;;7.80;99.90;;;;;;5096402;28;20900;-75
2022/04/06 07:35:20;;;;;;;11.55;4.05;;;7.80;99.90;;;;;;5077847;28;20047;-75
2022/04/06 07:37:50;;;;;;;12.63;4.40;;;7.90;99.90;;;;;;5097748;28;20053;-75
2022/04/06 07:40:19;;;;;;;9.77;4.00;;;7.90;99.90;;;;;;5079902;28;20100;-75
2022/04/06 07:42:48;;;;;;;15.73;4.10;;;7.90;99.90;;;;;;5078928;28;20495;-76
2022/04/06 07:45:16;;;;;;;13.55;3.63;;;7.90;99.90;;;;;;5078517;28;20039;-76
2022/04/06 07:47:44;;;;;;;7.95;2.83;;;7.90;99.90;;;;;;5088117;28;20052;-75
2022/04/06 07:50:12;;;;;;;10.23;3.45;;;7.90;99.90;;;;;;5081111;28;20052;-76
2022/04/06 07:52:40;;;;;;;7.85;3.10;;;7.90;99.90;;;;;;5076800;28;20135;-75
2022/04/06 07:55:10;;;;;;;6.72;3.20;;;7.90;99.90;;;;;;5074808;28;20123;-76
2022/04/06 07:57:37;;;;;;;10.73;4.27;;;7.90;99.90;;;;;;5071840;28;20591;-74
2022/04/06 08:00:07;;;;;;;10.48;4.25;;;8.00;99.90;;;;;;5094903;28;20329;-74
2022/04/06 08:02:34;;;;;;;11.10;3.75;;;8.00;99.90;;;;;;5094570;28;20048;-74
2022/04/06 08:05:01;;;;;;;10.02;3.97;;;8.00;99.90;;;;;;5076471;28;20093;-75
2022/04/06 08:07:27;;;;;;;15.27;4.57;;;8.00;99.90;;;;;;5077060;28;20162;-74
2022/04/06 08:09:54;;;;;;;14.20;4.57;;;8.00;99.90;;;;;;5075988;28;20105;-74
2022/04/06 08:12:22;;;;;;;14.30;4.20;;;8.00;99.90;;;;;;5073734;28;20468;-74
2022/04/06 08:14:50;;;;;;;9.38;4.35;;;8.00;99.90;;;;;;5075733;28;20098;-76
2022/04/06 08:17:17;;;;;;;15.18;4.03;;;8.00;99.90;;;;;;5057922;28;20143;-77
2022/04/06 08:19:44;;;;;;;8.13;3.63;;;8.00;99.90;;;;;;5057769;28;20082;-75
2022/04/06 08:22:11;;;;;;;11.93;4.03;;;8.00;99.90;;;;;;5075494;28;20098;-76
2022/04/06 08:24:38;;;;;;;8.57;3.58;;;8.00;99.90;;;;;;5082677;28;20427;-76
2022/04/06 08:27:05;;;;;;;9.43;4.07;;;8.00;99.90;;;;;;5095502;28;20105;-76
2022/04/06 08:29:33;;;;;;;8.35;3.85;;;8.00;99.90;;;;;;5106185;28;20105;-77
2022/04/06 08:32:00;;;;;;;8.40;3.13;;;8.10;99.90;;;;;;5078738;28;20060;-77
2022/04/06 08:34:27;;;;;;;9.32;4.07;;;8.10;99.90;;;;;;5057691;28;20245;-75
2022/04/06 08:36:54;;;;;;;12.70;4.80;;;8.10;99.90;;;;;;5089782;28;20416;-76
2022/04/06 08:39:20;;;;;;;11.75;3.70;;;8.00;99.90;;;;;;5094359;28;20117;-76
2022/04/06 08:41:48;;;;;;;12.63;4.32;;;8.00;99.90;;;;;;5073458;28;20101;-75
2022/04/06 08:44:16;;;;;;;9.68;5.18;;;8.10;99.90;;;;;;5057093;28;20091;-76
2022/04/06 08:46:46;;;;;;;10.65;3.20;;;8.10;99.90;;;;;;5059764;28;20128;-75
2022/04/06 08:49:13;;;;;;;15.48;4.47;;;8.20;99.90;;;;;;5094770;28;20048;-75
2022/04/06 08:51:41;;;;;;;10.02;3.80;;;8.20;99.90;;;;;;5076866;28;20412;-76
2022/04/06 08:54:08;;;;;;;12.48;4.32;;;8.20;99.90;;;;;;5094476;28;20147;-76
2022/04/06 08:56:34;;;;;;;10.80;3.28;;;8.40;99.90;;;;;;5076785;28;20067;-75
2022/04/06 08:59:01;;;;;;;10.50;3.17;;;8.50;99.90;;;;;;5076048;28;20051;-76
2022/04/06 09:01:31;;;;;;;11.95;3.28;;;8.50;99.90;;;;;;5094998;28;20125;-75
2022/04/06 09:04:00;;;;;;;6.65;3.30;;;8.50;99.90;;;;;;5077538;28;20056;-76
2022/04/06 09:06:32;;;;;;;10.57;3.80;;;8.60;99.90;;;;;;5093694;28;20495;-76
2022/04/06 09:08:59;;;;;;;10.05;3.63;;;8.60;99.90;;;;;;5076533;28;20043;-75
2022/04/06 09:11:28;;;;;;;9.65;3.72;;;8.70;99.90;;;;;;5077312;28;20125;-75
2022/04/06 09:13:59;;;;;;;12.35;3.75;;;8.70;99.90;;;;;;5094866;28;20044;-76
2022/04/06 09:16:28;;;;;;;11.35;3.78;;;8.70;99.90;;;;;;5094850;28;20040;-76
2022/04/06 09:18:55;;;;;;;12.45;4.10;;;8.80;99.90;;;;;;5076555;28;20495;-76
2022/04/06 09:21:23;;;;;;;8.32;3.35;;;8.90;99.90;;;;;;5076153;28;20076;-78
2022/04/06 09:23:50;;;;;;;15.43;3.35;;;9.00;99.90;;;;;;5073694;28;20376;-76
2022/04/06 09:26:20;;;;;;;9.77;3.78;;;9.40;99.90;;;;;;5077664;28;20079;-76
2022/04/06 09:28:49;;;;;;;10.47;4.10;;;9.30;99.90;;;;;;5097122;28;20509;-77
2022/04/06 09:31:16;;;;;;;10.27;3.63;;;9.40;99.90;;;;;;5073603;28;20112;-76
2022/04/06 09:33:55;;;;;;;11.30;3.33;;;9.60;99.90;;;;;;5075784;28;20492;-77
2022/04/06 09:36:23;;;;;;;8.77;4.32;;;9.70;99.90;;;;;;5097625;28;20044;-76
2022/04/06 09:38:52;;;;;;;13.32;3.95;;;9.80;99.90;;;;;;5074855;28;20601;-78
2022/04/06 09:41:19;;;;;;;8.75;3.60;;;9.90;99.90;;;;;;5095464;28;20101;-77
2022/04/06 09:43:47;;;;;;;10.15;3.83;;;9.90;99.90;;;;;;5076076;28;20047;-76
2022/04/06 09:49:06;;;;;;;8.18;3.70;;;10.10;99.90;;;;;;5075250;28;20051;-77
2022/04/06 09:51:34;;;;;;;10.88;3.35;;;10.10;99.90;;;;;;5072973;28;20049;-77
2022/04/06 09:54:03;;;;;;;13.85;3.88;;;10.20;99.90;;;;;;5073883;28;20076;-76
2022/04/06 09:56:31;;;;;;;13.95;4.20;;;10.10;99.90;;;;;;5054918;28;20360;-76
2022/04/06 09:58:59;;;;;;;10.90;3.47;;;10.00;99.90;;;;;;5063268;28;20052;-75
2022/04/06 10:01:31;;;;;;;12.05;4.57;;;10.00;99.90;;;;;;5083761;28;20052;-75
2022/04/06 10:04:03;;;;;;;11.35;3.58;;;10.00;99.90;;;;;;5060777;28;20064;-77
2022/04/06 10:06:36;;;;;;;13.55;3.90;;;10.00;99.90;;;;;;5086252;28;20607;-75
2022/04/06 10:09:05;;;;;;;11.25;3.83;;;10.00;99.90;;;;;;5102118;28;20082;-79
2022/04/06 10:11:34;;;;;;;14.48;4.03;;;10.00;99.90;;;;;;5073624;28;20036;-80
2022/04/06 10:14:02;;;;;;;15.18;4.03;;;10.10;99.90;;;;;;5089113;28;20098;-77
2022/04/06 10:16:29;;;;;;;8.70;3.67;;;10.00;99.90;;;;;;5076839;28;20466;-76
2022/04/06 10:18:57;;;;;;;12.82;4.55;;;10.00;99.90;;;;;;5092975;28;20517;-77
2022/04/06 10:21:30;;;;;;;11.25;4.05;;;9.90;99.90;;;;;;5057970;28;20056;-75
2022/04/06 10:24:09;;;;;;;10.65;3.63;;;9.90;99.90;;;;;;5081044;28;20098;-76
2022/04/06 10:26:45;;;;;;;13.35;4.43;;;9.90;99.90;;;;;;5072570;28;20500;-76
2022/04/06 10:29:12;;;;;;;9.80;4.60;;;9.80;99.90;;;;;;5072891;28;20492;-76
2022/04/06 10:31:39;;;;;;;16.00;4.88;;;9.90;99.90;;;;;;5092951;28;20048;-76
2022/04/06 10:34:20;;;;;;;10.70;3.85;;;9.80;99.90;;;;;;5087820;28;20052;-75
2022/04/06 10:37:01;;;;;;;;;;;9.80;99.90;;;;;;5066619;28;20500;-72
2022/04/06 10:39:30;;;;;;;13.93;4.35;;;9.80;99.90;;;;;;5057367;28;19924;-74
2022/04/06 10:42:18;;;;;;;12.38;4.53;;;9.80;99.90;;;;;;5053091;28;20094;-75
2022/04/06 10:44:45;;;;;;;16.45;4.65;;;9.80;99.90;;;;;;5077384;28;20137;-74
2022/04/06 10:47:13;;;;;;;15.02;5.72;;;9.80;99.90;;;;;;5076217;28;20110;-75
2022/04/06 10:49:41;;;;;;;10.07;5.78;;;9.80;99.90;;;;;;5073311;28;20102;-75
2022/04/06 10:52:26;;;;;;;15.07;5.88;;;9.80;99.90;;;;;;5074458;28;20052;-75
2022/04/06 10:54:54;;;;;;;13.50;5.40;;;9.80;99.90;;;;;;5085215;28;20453;-76
2022/04/06 10:57:21;;;;;;;16.45;5.32;;;9.70;99.90;;;;;;5095750;28;20040;-76
2022/04/06 11:00:15;;;;;;;14.68;5.10;;;9.60;99.90;;;;;;5077577;28;20060;-76
2022/04/06 11:02:50;;;;;;;15.77;5.20;;;9.60;99.90;;;;;;5078626;28;20070;-76
2022/04/06 11:05:46;;;;;;;15.98;5.75;;;9.60;99.90;;;;;;5079708;28;20063;-76
2022/04/06 11:11:45;;;;;;;14.57;4.93;;;9.80;99.90;;;;;;5097916;28;20130;-76
2022/04/06 11:14:12;;;;;;;13.90;4.43;;;9.80;99.90;;;;;;5096358;28;20054;-76
2022/04/06 11:16:44;;;;;;;20.08;6.05;;;9.80;99.90;;;;;;5075400;28;20087;-76
2022/04/06 11:19:12;;;;;;;13.10;5.03;;;9.80;99.90;;;;;;5059002;28;20385;-75
2022/04/06 11:21:50;;;;;;;15.77;5.07;;;9.80;99.90;;;;;;5058888;28;20408;-76
2022/04/06 11:24:19;;;;;;;17.00;5.00;;;9.70;99.90;;;;;;5058668;28;20442;-76
2022/04/06 11:26:47;;;;;;;21.52;6.50;;;9.70;99.90;;;;;;5078805;28;20047;-76
2022/04/06 11:29:14;;;;;;;13.98;5.03;;;9.90;99.90;;;;;;5105863;28;20101;-76
2022/04/06 11:32:08;;;;;;;19.60;5.20;;;10.00;99.90;;;;;;5100522;28;20105;-76
2022/04/06 11:34:37;;;;;;;17.08;5.45;;;10.20;99.90;;;;;;5049499;28;20101;-76
2022/04/06 11:37:05;;;;;;;14.75;5.07;;;10.40;99.90;;;;;;5079200;28;20087;-76
2022/04/06 11:39:32;;;;;;;20.92;5.63;;;10.70;99.90;;;;;;5079492;28;20048;-76
2022/04/06 11:42:06;;;;;;;16.80;5.32;;;10.90;99.90;;;;;;5078797;28;20052;-76
2022/04/06 11:44:33;;;;;;;14.82;4.20;;;11.10;99.90;;;;;;5097019;28;20097;-77
2022/04/06 11:47:01;;;;;;;15.15;5.70;;;11.20;99.90;;;;;;5096822;28;20047;-76
2022/04/06 11:49:29;;;;;;;12.13;4.20;;;11.20;99.90;;;;;;5079472;28;20048;-77
2022/04/06 11:51:57;;;;;;;15.10;5.05;;;11.30;99.90;;;;;;5098383;28;20048;-77
2022/04/06 11:54:24;;;;;;;18.15;5.10;;;11.30;99.90;;;;;;5079816;28;20101;-77
2022/04/06 11:56:52;;;;;;;10.82;4.32;;;11.40;99.90;;;;;;5078996;28;20044;-76
2022/04/06 11:59:22;;;;;;;14.55;4.47;;;11.70;99.90;;;;;;5096382;28;20507;-79
2022/04/06 12:01:50;;;;;;;14.13;3.63;;;12.30;99.90;;;;;;5097460;28;20252;-77
2022/04/06 12:04:21;;;;;;;13.38;3.65;;;12.70;99.90;;;;;;5079808;28;20051;-76
2022/04/06 12:06:48;;;;;;;18.25;4.65;;;12.80;99.90;;;;;;5098145;28;20454;-78
2022/04/06 12:09:15;;;;;;;14.40;4.95;;;13.00;99.90;;;;;;5080511;28;20093;-78
2022/04/06 12:11:42;;;;;;;23.02;4.32;;;13.30;99.90;;;;;;5098647;28;20047;-77
2022/04/06 12:14:11;;;;;;;12.27;3.38;;;13.30;99.90;;;;;;5078318;28;20108;-76
2022/04/06 12:16:40;;;;;;;8.02;3.05;;;13.00;99.90;;;;;;5077409;28;20487;-75
2022/04/06 12:19:12;;;;;;;12.88;3.45;;;12.80;99.90;;;;;;5074527;28;20094;-75
2022/04/06 12:21:44;;;;;;;10.73;2.95;;;12.50;99.90;;;;;;5072909;28;20396;-75
2022/04/06 12:24:12;;;;;;;11.38;3.10;;;12.40;99.90;;;;;;5076108;28;20052;-75
2022/04/06 12:26:45;;;;;;;11.98;3.47;;;12.20;99.90;;;;;;5094931;28;20079;-76
2022/04/06 12:29:16;;;;;;;11.15;3.45;;;12.10;99.90;;;;;;5075733;28;20075;-74
2022/04/06 12:31:46;;;;;;;10.23;3.55;;;11.90;99.90;;;;;;5092138;28;20056;-74
2022/04/06 12:34:37;;;;;;;7.15;2.85;;;12.00;99.90;;;;;;5094840;28;20090;-74
2022/04/06 12:39:51;;;;;;;11.32;3.33;;;12.90;99.90;;;;;;5076867;28;20051;-75
2022/04/06 12:42:18;;;;;;;13.30;3.63;;;13.20;99.90;;;;;;5094849;28;20056;-75
2022/04/06 12:44:57;;;;;;;10.07;3.20;;;13.10;99.90;;;;;;5075602;28;20044;-75
2022/04/06 12:47:26;;;;;;;11.43;2.97;;;12.70;99.90;;;;;;5094668;28;20488;-74
2022/04/06 12:50:09;;;;;;;13.40;2.97;;;12.30;99.90;;;;;;5094570;28;20458;-75
2022/04/06 12:52:37;;;;;;;8.60;3.17;;;12.10;99.90;;;;;;5075804;28;20112;-74
2022/04/06 12:55:07;;;;;;;12.48;3.70;;;12.00;99.90;;;;;;5076905;28;20373;-75
2022/04/06 12:57:36;;;;;;;11.77;3.85;;;11.90;99.90;;;;;;5076466;28;20049;-74
2022/04/06 13:00:08;;;;;;;9.50;2.95;;;11.80;99.90;;;;;;5075626;28;20052;-75
2022/04/06 13:02:38;;;;;;;8.30;3.45;;;11.80;99.90;;;;;;5072913;28;20492;-75
2022/04/06 13:05:06;;;;;;;13.07;3.27;;;11.80;99.90;;;;;;5075340;28;20088;-75